Time;durP1;ratioP1;P1;durP2;ratioP2;P2;SDS_P1;SDS_P2;PMS_P1;PMS_P2;Temp;Humidity;BMP_temperature;BMP_pressure;BME280_temperature;BME280_humidity;BME280_pressure;Samples;Min_cycle;Max_cycle;Signal;HPM_P1;HPM_P2
2024/04/20 00:01:34;;;;;;;6.00;2.50;;;;;;;4.71;89.81;95134.84;5439079;26;20241;-79
2024/04/20 00:04:00;;;;;;;7.37;2.57;;;;;;;4.61;90.04;95133.94;5443826;26;20292;-79
2024/04/20 00:06:25;;;;;;;8.33;2.50;;;;;;;4.62;90.41;95129.59;5439503;26;20261;-79
2024/04/20 00:08:51;;;;;;;6.03;2.60;;;;;;;4.50;90.71;95137.31;5437269;26;20303;-79
2024/04/20 00:11:16;;;;;;;6.43;2.90;;;;;;;4.58;90.60;95134.16;5436969;26;20243;-78
2024/04/20 00:13:44;;;;;;;6.30;3.27;;;;;;;4.64;90.46;95138.81;5437685;26;20235;-78
2024/04/20 00:16:10;;;;;;;9.57;3.13;;;;;;;4.69;90.95;95133.34;5398613;26;20243;-79
2024/04/20 00:18:36;;;;;;;8.70;3.17;;;;;;;4.59;91.44;95145.25;5441909;26;20738;-78
2024/04/20 00:21:02;;;;;;;5.67;3.43;;;;;;;4.61;91.59;95145.97;5440685;26;20250;-79
2024/04/20 00:23:27;;;;;;;9.60;3.20;;;;;;;4.70;91.03;95143.50;5438119;26;20242;-78
2024/04/20 00:25:52;;;;;;;7.90;3.20;;;;;;;4.63;91.22;95154.38;5396558;26;20719;-78
2024/04/20 00:28:18;;;;;;;9.33;3.00;;;;;;;4.59;91.28;95151.22;5392797;26;20716;-79
2024/04/20 00:30:44;;;;;;;3.40;2.60;;;;;;;4.66;91.00;95148.97;5419030;26;20781;-79
2024/04/20 00:33:09;;;;;;;10.07;3.40;;;;;;;4.66;90.98;95148.97;5436575;26;20238;-77
2024/04/20 00:35:36;;;;;;;10.13;2.57;;;;;;;4.65;90.56;95149.94;5404182;26;20265;-78
2024/04/20 00:38:02;;;;;;;6.90;2.83;;;;;;;4.49;91.05;95145.97;5393035;26;20254;-79
2024/04/20 00:40:27;;;;;;;7.97;2.47;;;;;;;4.49;91.05;95148.56;5441208;26;20568;-79
2024/04/20 00:42:53;;;;;;;10.77;2.70;;;;;;;4.48;91.13;95149.50;5436966;26;20289;-79
2024/04/20 00:45:18;;;;;;;4.60;2.20;;;;;;;4.54;90.78;95153.34;5434940;26;20343;-79
2024/04/20 00:47:43;;;;;;;6.63;2.40;;;;;;;4.51;90.10;95153.59;5439770;26;20366;-79
2024/04/20 00:50:09;;;;;;;9.77;2.43;;;;;;;4.49;90.22;95152.88;5424724;26;20348;-78
2024/04/20 00:52:34;;;;;;;10.33;2.50;;;;;;;4.47;89.93;95159.91;5442041;26;20248;-79
2024/04/20 00:55:00;;;;;;;8.30;2.60;;;;;;;4.40;90.50;95158.75;5406610;26;20242;-78
2024/04/20 00:57:26;;;;;;;9.10;2.70;;;;;;;4.60;89.70;95167.50;5408366;26;20268;-78
2024/04/20 00:59:52;;;;;;;7.67;2.97;;;;;;;4.53;90.06;95167.16;5400857;26;20244;-78
2024/04/20 01:02:17;;;;;;;8.50;2.90;;;;;;;4.60;89.84;95170.06;5440112;26;20872;-78
2024/04/20 01:04:42;;;;;;;5.57;2.50;;;;;;;4.56;90.03;95177.19;5439049;26;20250;-78
2024/04/20 01:07:08;;;;;;;10.00;2.53;;;;;;;4.61;89.71;95167.38;5397765;26;20603;-78
2024/04/20 01:09:33;;;;;;;9.67;2.53;;;;;;;4.48;90.12;95164.09;5403468;26;20241;-78
2024/04/20 01:11:58;;;;;;;9.60;2.83;;;;;;;4.52;89.89;95168.91;5436566;26;20303;-78
2024/04/20 01:14:24;;;;;;;7.17;2.07;;;;;;;4.46;89.74;95168.56;5392732;26;20247;-78
2024/04/20 01:16:49;;;;;;;12.20;2.47;;;;;;;4.55;89.45;95175.56;5398157;26;20244;-79
2024/04/20 01:19:19;;;;;;;13.00;2.87;;;;;;;4.57;89.29;95173.66;5397601;26;20349;-78
2024/04/20 01:21:45;;;;;;;7.33;2.67;;;;;;;4.56;89.16;95177.19;5438110;26;20319;-79
2024/04/20 01:24:15;;;;;;;8.30;2.63;;;;;;;4.53;89.40;95172.28;5411401;26;20248;-78
2024/04/20 01:26:40;;;;;;;8.27;2.20;;;;;;;4.42;89.46;95173.13;5389678;26;20309;-79
2024/04/20 01:29:05;;;;;;;8.90;2.90;;;;;;;4.47;89.04;95173.56;5439912;26;20246;-79
2024/04/20 01:31:31;;;;;;;17.83;2.53;;;;;;;4.43;89.19;95181.66;5428026;26;20256;-78
2024/04/20 01:33:56;;;;;;;8.00;1.97;;;;;;;4.40;88.92;95187.03;5432936;26;20288;-78
2024/04/20 01:36:22;;;;;;;6.83;2.00;;;;;;;4.41;88.76;95183.50;5430440;26;20253;-78
2024/04/20 01:38:47;;;;;;;7.83;2.27;;;;;;;4.40;88.49;95187.03;5447497;26;20267;-79
2024/04/20 01:41:13;;;;;;;8.93;2.43;;;;;;;4.36;88.53;95190.78;5416401;26;20254;-79
2024/04/20 01:43:38;;;;;;;7.77;2.10;;;;;;;4.42;88.46;95191.13;5437750;26;20227;-79
2024/04/20 01:46:03;;;;;;;6.77;2.43;;;;;;;4.31;89.11;95203.16;5438575;26;20261;-79
2024/04/20 01:48:29;;;;;;;11.70;2.40;;;;;;;4.28;89.28;95187.97;5428224;26;20280;-78
2024/04/20 01:50:55;;;;;;;6.20;2.17;;;;;;;4.27;89.37;95194.88;5391436;26;20600;-78
2024/04/20 01:53:21;;;;;;;8.67;2.40;;;;;;;4.33;88.89;95191.00;5390931;26;20732;-79
2024/04/20 01:55:46;;;;;;;13.43;3.13;;;;;;;4.37;88.67;95197.56;5429955;26;20272;-78
2024/04/20 01:58:11;;;;;;;11.43;2.73;;;;;;;4.26;89.06;95188.91;5414481;26;20321;-78
2024/04/20 02:00:37;;;;;;;10.10;2.47;;;;;;;4.31;89.47;95198.00;5425143;26;20313;-78
2024/04/20 02:03:02;;;;;;;7.80;2.53;;;;;;;4.13;89.40;95192.53;5445790;26;20230;-78
2024/04/20 02:05:27;;;;;;;8.63;3.23;;;;;;;4.19;89.16;95194.66;5448655;26;20747;-78
2024/04/20 02:07:53;;;;;;;8.13;3.13;;;;;;;4.25;88.99;95196.75;5441128;26;20240;-78
2024/04/20 02:10:18;;;;;;;7.10;2.20;;;;;;;4.22;89.28;95205.50;5451886;26;20247;-78
2024/04/20 02:12:43;;;;;;;8.77;2.90;;;;;;;4.30;88.65;95196.38;5418864;26;20284;-79
2024/04/20 02:15:09;;;;;;;9.03;2.57;;;;;;;4.20;88.94;95191.94;5452024;26;20283;-79
2024/04/20 02:17:34;;;;;;;7.80;2.63;;;;;;;4.26;89.18;95196.63;5456798;26;20260;-78
2024/04/20 02:19:59;;;;;;;9.67;2.70;;;;;;;4.25;88.90;95202.72;5447548;26;20299;-77
2024/04/20 02:22:25;;;;;;;7.60;2.37;;;;;;;4.19;89.45;95210.88;5451395;26;20287;-77
2024/04/20 02:24:50;;;;;;;8.80;2.27;;;;;;;4.24;89.43;95215.66;5442457;26;20248;-77
2024/04/20 02:27:16;;;;;;;10.07;2.63;;;;;;;4.16;89.26;95211.13;5404792;26;20287;-78
2024/04/20 02:29:41;;;;;;;11.07;2.60;;;;;;;4.18;89.48;95219.53;5433520;26;20238;-78
2024/04/20 02:32:07;;;;;;;8.90;2.53;;;;;;;3.97;90.40;95223.69;5434013;26;20276;-78
2024/04/20 02:34:32;;;;;;;10.07;3.00;;;;;;;4.08;89.92;95223.72;5433776;26;20243;-78
2024/04/20 02:37:09;;;;;;;12.90;3.50;;;;;;;3.97;90.17;95221.13;5436950;26;21094;-78
2024/04/20 02:39:36;;;;;;;13.50;3.07;;;;;;;3.99;89.92;95227.00;5448866;26;20791;-78
2024/04/20 02:42:01;;;;;;;7.90;2.90;;;;;;;4.06;89.41;95224.75;5440960;26;20346;-78
2024/04/20 02:44:27;;;;;;;8.83;2.73;;;;;;;4.09;89.95;95235.66;5398991;26;20247;-78
2024/04/20 02:46:52;;;;;;;9.17;3.10;;;;;;;4.01;90.13;95232.00;5434437;26;20277;-78
2024/04/20 02:49:17;;;;;;;10.33;3.07;;;;;;;3.85;90.81;95234.91;5432922;26;20282;-77
2024/04/20 02:51:44;;;;;;;8.60;3.43;;;;;;;3.97;90.21;95244.25;5428659;26;20251;-77
2024/04/20 02:54:09;;;;;;;9.63;2.87;;;;;;;3.83;90.85;95231.63;5443246;26;20280;-77
2024/04/20 02:56:34;;;;;;;10.07;2.77;;;;;;;3.93;90.34;95237.72;5431650;26;20230;-77
2024/04/20 02:59:00;;;;;;;6.93;2.70;;;;;;;3.97;90.35;95233.97;5433358;26;20776;-77
2024/04/20 03:01:25;;;;;;;7.43;2.87;;;;;;;3.78;90.93;95223.44;5430053;26;20240;-77
2024/04/20 03:03:50;;;;;;;11.60;3.07;;;;;;;3.90;90.78;95227.69;5436175;26;20283;-77
2024/04/20 03:06:16;;;;;;;10.50;2.60;;;;;;;3.95;90.06;95228.16;5439279;26;20241;-77
2024/04/20 03:08:41;;;;;;;8.67;2.80;;;;;;;3.90;90.38;95230.25;5430482;26;20269;-77
2024/04/20 03:11:07;;;;;;;10.80;3.00;;;;;;;3.88;90.40;95226.97;5434963;26;20239;-76
2024/04/20 03:13:32;;;;;;;12.90;3.33;;;;;;;3.88;90.26;95232.09;5436325;26;20746;-78
2024/04/20 03:16:02;;;;;;;12.10;2.73;;;;;;;3.96;89.75;95233.16;5406859;26;20264;-78
2024/04/20 03:18:27;;;;;;;8.73;3.20;;;;;;;3.77;90.70;95230.34;5419512;26;20310;-78
2024/04/20 03:20:52;;;;;;;5.73;2.60;;;;;;;3.85;90.18;95234.91;5434432;26;20242;-78
2024/04/20 03:23:17;;;;;;;13.93;3.20;;;;;;;3.93;90.31;95242.88;5435637;26;20280;-77
2024/04/20 03:25:43;;;;;;;11.53;2.73;;;;;;;3.95;89.68;95243.56;5422725;26;20235;-78
2024/04/20 03:28:08;;;;;;;8.97;3.30;;;;;;;4.01;89.77;95247.44;5442254;26;20851;-77
2024/04/20 03:30:34;;;;;;;11.17;3.13;;;;;;;4.00;89.25;95250.94;5391639;26;20656;-78
2024/04/20 03:32:59;;;;;;;11.87;3.50;;;;;;;3.88;89.73;95257.78;5426351;26;20337;-78
2024/04/20 03:35:25;;;;;;;10.53;3.20;;;;;;;3.67;90.19;95261.00;5401760;26;20247;-77
2024/04/20 03:37:50;;;;;;;9.20;3.13;;;;;;;3.79;90.91;95266.19;5396050;26;20243;-78
2024/04/20 03:40:15;;;;;;;5.00;2.30;;;;;;;3.83;90.26;95276.13;5387980;26;20246;-77
2024/04/20 03:42:41;;;;;;;7.63;2.97;;;;;;;3.92;90.34;95265.16;5435470;26;20343;-78
2024/04/20 03:45:06;;;;;;;6.77;3.00;;;;;;;3.89;90.57;95274.88;5437803;26;20239;-78
2024/04/20 03:47:32;;;;;;;8.97;3.13;;;;;;;3.99;90.25;95283.53;5443423;26;20272;-78
2024/04/20 03:49:57;;;;;;;10.83;2.80;;;;;;;3.97;90.72;95282.78;5435999;26;20243;-78
2024/04/20 03:52:23;;;;;;;10.37;3.50;;;;;;;3.81;91.10;95275.44;5436812;26;20599;-78
2024/04/20 03:54:48;;;;;;;9.40;3.53;;;;;;;3.81;91.05;95274.59;5401764;26;20312;-78
2024/04/20 03:57:13;;;;;;;10.33;3.03;;;;;;;3.88;90.40;95281.72;5405257;26;20278;-78
2024/04/20 03:59:39;;;;;;;11.37;3.47;;;;;;;3.84;90.32;95282.91;5427929;26;20774;-78
2024/04/20 04:02:04;;;;;;;7.87;2.70;;;;;;;3.95;90.39;95284.66;5433576;26;20249;-78
2024/04/20 04:04:29;;;;;;;7.13;3.10;;;;;;;3.97;90.55;95290.50;5393050;26;20269;-78
2024/04/20 04:06:55;;;;;;;9.67;4.20;;;;;;;3.92;90.64;95295.19;5408097;26;20260;-77
2024/04/20 04:09:20;;;;;;;7.00;3.30;;;;;;;3.83;91.24;95285.59;5433181;26;20234;-78
2024/04/20 04:11:46;;;;;;;12.00;4.07;;;;;;;3.77;91.04;95293.72;5399307;26;20606;-78
2024/04/20 04:14:11;;;;;;;18.50;3.90;;;;;;;3.69;91.41;95300.25;5392901;26;20250;-78
2024/04/20 04:16:36;;;;;;;8.03;3.53;;;;;;;3.90;90.49;95297.06;5427403;26;20243;-78
2024/04/20 04:19:02;;;;;;;10.03;3.43;;;;;;;3.95;90.47;95302.66;5435048;26;20673;-78
2024/04/20 04:21:28;;;;;;;11.33;3.67;;;;;;;4.01;90.47;95302.22;5428005;26;20288;-78
2024/04/20 04:23:53;;;;;;;9.43;3.17;;;;;;;3.74;91.40;95304.25;5435412;26;20235;-78
2024/04/20 04:26:18;;;;;;;11.70;3.17;;;;;;;3.86;91.01;95308.47;5428522;26;20246;-78
2024/04/20 04:28:44;;;;;;;14.33;3.67;;;;;;;3.89;91.26;95305.69;5441097;26;20243;-78
2024/04/20 04:31:09;;;;;;;11.90;3.77;;;;;;;3.92;91.29;95313.97;5435975;26;20579;-78
2024/04/20 04:33:34;;;;;;;11.03;3.93;;;;;;;3.85;91.61;95309.41;5426630;26;20327;-78
2024/04/20 04:36:02;;;;;;;7.93;3.37;;;;;;;3.88;91.19;95316.88;5432295;26;20366;-78
2024/04/20 04:38:27;;;;;;;5.53;2.87;;;;;;;3.86;90.98;95319.56;5379901;26;20236;-78
2024/04/20 04:40:56;;;;;;;7.57;3.60;;;;;;;3.78;90.92;95318.47;5398747;26;20292;-78
2024/04/20 04:43:21;;;;;;;6.17;3.10;;;;;;;3.74;91.99;95332.50;5432060;26;20276;-78
2024/04/20 04:45:47;;;;;;;9.87;3.60;;;;;;;3.67;91.91;95330.34;5404899;26;20237;-78
2024/04/20 04:48:17;;;;;;;10.70;3.60;;;;;;;3.57;91.90;95333.69;5436375;26;20235;-78
2024/04/20 04:50:43;;;;;;;7.17;3.97;;;;;;;3.63;91.77;95334.09;5438229;26;20239;-77
2024/04/20 04:53:09;;;;;;;12.90;4.07;;;;;;;3.55;91.90;95343.28;5442028;26;20830;-77
2024/04/20 04:55:34;;;;;;;10.30;3.80;;;;;;;3.62;91.57;95350.44;5434975;26;20242;-78
2024/04/20 04:58:00;;;;;;;12.00;3.67;;;;;;;3.72;91.12;95354.91;5404540;26;20286;-78
2024/04/20 05:00:25;;;;;;;14.53;4.37;;;;;;;3.73;91.15;95370.19;5439562;26;20242;-78
2024/04/20 05:02:50;;;;;;;10.77;3.23;;;;;;;3.71;91.76;95364.34;5398316;26;20251;-78
2024/04/20 05:05:16;;;;;;;9.30;3.27;;;;;;;3.69;90.66;95361.88;5390876;26;20297;-77
2024/04/20 05:07:42;;;;;;;9.73;4.20;;;;;;;3.73;91.40;95366.81;5402940;26;20756;-77
2024/04/20 05:10:08;;;;;;;7.53;4.57;;;;;;;3.93;90.90;95377.28;5431397;26;20282;-78
2024/04/20 05:12:33;;;;;;;10.60;4.13;;;;;;;3.93;90.89;95376.44;5430794;26;20248;-79
2024/04/20 05:14:59;;;;;;;13.43;4.47;;;;;;;4.00;90.92;95374.28;5402382;26;20247;-79
2024/04/20 05:17:24;;;;;;;10.47;3.40;;;;;;;3.87;91.39;95382.03;5421216;26;20239;-79
2024/04/20 05:19:49;;;;;;;8.90;3.77;;;;;;;3.77;91.75;95378.47;5441135;26;20781;-79
2024/04/20 05:22:15;;;;;;;7.20;3.37;;;;;;;3.88;91.69;95386.22;5438816;26;20246;-78
2024/04/20 05:24:40;;;;;;;10.00;3.70;;;;;;;3.84;91.76;95382.25;5431868;26;20234;-79
2024/04/20 05:27:05;;;;;;;9.67;3.33;;;;;;;3.90;91.03;95389.53;5437178;26;20250;-77
2024/04/20 05:29:31;;;;;;;9.57;5.03;;;;;;;3.83;91.02;95393.47;5445543;26;20234;-78
2024/04/20 05:31:56;;;;;;;10.27;3.80;;;;;;;3.88;91.21;95417.06;5444855;26;20343;-78
2024/04/20 05:34:22;;;;;;;10.70;3.80;;;;;;;3.76;92.31;95417.94;5427916;26;20353;-78
2024/04/20 05:36:47;;;;;;;7.67;3.80;;;;;;;3.31;94.36;95417.69;5431889;26;20694;-78
2024/04/20 05:39:15;;;;;;;5.57;2.53;;;;;;;2.44;95.15;95419.28;5396027;26;20249;-78
2024/04/20 05:41:41;;;;;;;4.53;2.17;;;;;;;2.40;93.02;95435.81;5419906;26;20580;-77
2024/04/20 05:44:06;;;;;;;4.70;2.20;;;;;;;2.33;91.19;95434.56;5432253;26;20285;-78
2024/04/20 05:46:32;;;;;;;2.73;2.30;;;;;;;2.04;89.14;95427.97;5428897;26;20671;-77
2024/04/20 05:48:58;;;;;;;3.10;2.20;;;;;;;2.55;85.43;95423.69;5426173;26;20292;-77
2024/04/20 05:51:23;;;;;;;2.53;1.90;;;;;;;2.91;84.69;95434.97;5393051;26;20630;-77
2024/04/20 05:53:48;;;;;;;6.20;2.50;;;;;;;3.26;84.59;95438.53;5419787;26;20735;-79
2024/04/20 05:56:14;;;;;;;5.33;2.13;;;;;;;3.59;84.61;95439.69;5425324;26;20585;-78
2024/04/20 05:58:39;;;;;;;4.83;3.10;;;;;;;4.14;85.01;95454.53;5425772;26;20278;-81
2024/04/20 06:01:05;;;;;;;9.63;3.23;;;;;;;4.58;83.94;95453.06;5399610;26;20825;-79
2024/04/20 06:03:30;;;;;;;7.50;2.90;;;;;;;5.04;82.14;95449.63;5433041;26;20741;-80
2024/04/20 06:05:56;;;;;;;6.87;3.67;;;;;;;5.21;81.47;95456.91;5423420;26;20833;-80
2024/04/20 06:08:22;;;;;;;6.23;2.90;;;;;;;5.23;81.74;95462.75;5428777;26;20244;-80
2024/04/20 06:10:55;;;;;;;8.10;3.50;;;;;;;5.33;81.20;95468.00;5400494;26;20336;-80
2024/04/20 06:13:20;;;;;;;5.63;2.90;;;;;;;5.72;81.03;95476.97;5436936;26;20301;-79
2024/04/20 06:15:46;;;;;;;8.60;3.27;;;;;;;6.11;79.88;95480.78;5391978;26;20244;-80
2024/04/20 06:18:11;;;;;;;7.47;3.03;;;;;;;6.05;79.28;95477.88;5391092;26;20257;-80
2024/04/20 06:20:37;;;;;;;6.77;3.37;;;;;;;6.17;78.75;95475.13;5388942;26;20250;-79
2024/04/20 06:23:03;;;;;;;6.77;2.80;;;;;;;6.00;78.05;95473.06;5427572;26;20235;-79
2024/04/20 06:25:29;;;;;;;6.83;2.80;;;;;;;5.84;78.06;95473.47;5416072;26;20340;-80
2024/04/20 06:27:54;;;;;;;7.60;2.70;;;;;;;5.98;78.19;95480.13;5429409;26;20230;-80
2024/04/20 06:30:19;;;;;;;6.30;2.33;;;;;;;6.25;78.17;95477.91;5412419;26;20320;-80
2024/04/20 06:32:48;;;;;;;6.23;2.80;;;;;;;6.18;78.56;95484.53;5427494;26;20243;-80
2024/04/20 06:35:14;;;;;;;7.67;2.83;;;;;;;5.86;78.96;95481.06;5421971;26;20226;-80
2024/04/20 06:37:39;;;;;;;60.97;33.03;;;;;;;6.35;76.12;95498.63;5390589;26;20335;-79
2024/04/20 06:40:05;;;;;;;18.00;10.83;;;;;;;6.15;77.17;95494.25;5434023;26;20288;-80
2024/04/20 06:42:30;;;;;;;123.13;57.77;;;;;;;6.21;76.44;95497.16;5421569;26;20260;-80
2024/04/20 06:44:55;;;;;;;34.67;17.57;;;;;;;5.77;77.91;95499.81;5429630;26;20269;-80
2024/04/20 06:47:21;;;;;;;29.13;15.73;;;;;;;5.94;78.36;95510.47;5424597;26;20242;-79
2024/04/20 06:49:56;;;;;;;9.87;5.00;;;;;;;5.72;77.75;95505.31;5388182;26;20273;-79
2024/04/20 06:52:21;;;;;;;5.13;3.10;;;;;;;5.83;77.91;95504.47;5424730;26;20232;-79
2024/04/20 06:54:49;;;;;;;3.87;2.80;;;;;;;5.52;78.13;95508.63;5434084;26;20357;-79
2024/04/20 06:57:15;;;;;;;7.87;3.60;;;;;;;5.65;77.91;95517.88;5425721;26;20243;-79
2024/04/20 06:59:40;;;;;;;5.93;3.20;;;;;;;5.56;77.97;95520.31;5396310;26;20630;-79
2024/04/20 07:02:05;;;;;;;4.20;2.70;;;;;;;5.14;78.26;95514.94;5426753;26;20302;-79
2024/04/20 07:04:31;;;;;;;4.17;2.70;;;;;;;5.24;79.04;95525.34;5432084;26;20274;-78
2024/04/20 07:06:56;;;;;;;7.33;2.80;;;;;;;5.20;79.27;95531.66;5411696;26;20286;-79
2024/04/20 07:09:21;;;;;;;4.13;2.50;;;;;;;5.03;78.49;95530.34;5424823;26;20242;-79
2024/04/20 07:11:47;;;;;;;5.53;3.10;;;;;;;4.83;78.80;95534.38;5395503;26;20256;-79
2024/04/20 07:14:12;;;;;;;6.80;2.80;;;;;;;5.30;78.42;95533.44;5433969;26;20235;-79
2024/04/20 07:16:37;;;;;;;7.23;3.00;;;;;;;5.17;78.20;95535.28;5433259;26;20247;-79
2024/04/20 07:19:03;;;;;;;6.30;3.17;;;;;;;5.14;78.54;95543.25;5431525;26;20616;-79
2024/04/20 07:21:28;;;;;;;7.73;3.40;;;;;;;5.01;78.81;95548.47;5389782;26;20836;-78
2024/04/20 07:23:54;;;;;;;7.47;4.17;;;;;;;4.95;79.62;95553.28;5410502;26;20728;-80
2024/04/20 07:26:19;;;;;;;6.73;3.33;;;;;;;5.04;79.78;95565.47;5429495;26;20238;-79
2024/04/20 07:28:44;;;;;;;4.60;3.77;;;;;;;4.79;79.11;95556.97;5405026;26;20270;-79
2024/04/20 07:31:10;;;;;;;4.87;3.73;;;;;;;4.93;79.92;95561.06;5392281;26;20239;-79
2024/04/20 07:33:35;;;;;;;6.70;3.87;;;;;;;4.84;80.19;95565.16;5417150;26;20320;-79
2024/04/20 07:36:00;;;;;;;10.43;6.07;;;;;;;4.93;79.88;95570.56;5425207;26;20253;-79
2024/04/20 07:38:26;;;;;;;9.67;5.27;;;;;;;4.96;81.38;95566.03;5397382;26;20239;-79
2024/04/20 07:40:51;;;;;;;8.43;4.00;;;;;;;4.58;80.56;95575.69;5445287;26;20724;-79
2024/04/20 07:43:16;;;;;;;8.23;4.20;;;;;;;5.10;79.68;95580.44;5432425;26;20354;-79
2024/04/20 07:45:42;;;;;;;6.37;3.83;;;;;;;5.32;79.48;95577.09;5430185;26;20251;-79
2024/04/20 07:48:07;;;;;;;7.37;3.80;;;;;;;5.02;79.25;95587.88;5393853;26;20285;-79
2024/04/20 07:50:32;;;;;;;6.03;4.30;;;;;;;5.23;79.39;95585.50;5393253;26;20302;-79
2024/04/20 07:53:01;;;;;;;10.50;4.10;;;;;;;5.46;79.03;95596.66;5388017;26;20250;-84
2024/04/20 07:55:26;;;;;;;12.27;6.40;;;;;;;5.52;79.72;95599.59;5397558;26;20257;-80
2024/04/20 07:57:51;;;;;;;8.30;6.67;;;;;;;5.45;80.26;95600.16;5423593;26;20243;-80
2024/04/20 08:00:18;;;;;;;8.17;5.80;;;;;;;5.55;80.66;95606.25;5419796;26;20315;-80
2024/04/20 08:02:43;;;;;;;9.67;4.90;;;;;;;5.48;80.79;95608.50;5385652;26;20282;-78
2024/04/20 08:05:09;;;;;;;8.53;4.87;;;;;;;5.51;80.99;95622.88;5431534;26;20346;-80
2024/04/20 08:07:35;;;;;;;7.23;4.40;;;;;;;5.37;80.47;95616.19;5429527;26;20584;-79
2024/04/20 08:10:00;;;;;;;10.93;5.53;;;;;;;5.32;81.97;95628.59;5430007;26;20284;-80
2024/04/20 08:12:25;;;;;;;8.10;5.30;;;;;;;5.13;81.93;95628.31;5428661;26;20839;-80
2024/04/20 08:14:51;;;;;;;7.13;4.83;;;;;;;5.11;82.70;95636.94;5397566;26;20243;-78
2024/04/20 08:17:16;;;;;;;7.57;4.70;;;;;;;5.36;82.51;95640.28;5429673;26;20243;-79
2024/04/20 08:19:42;;;;;;;5.20;3.73;;;;;;;5.44;82.30;95642.31;5394870;26;20243;-79
2024/04/20 08:22:07;;;;;;;9.47;5.13;;;;;;;5.50;81.77;95637.53;5430056;26;20758;-80
2024/04/20 08:24:33;;;;;;;6.70;4.50;;;;;;;5.58;82.30;95634.38;5403209;26;20249;-79
2024/04/20 08:27:01;;;;;;;8.67;4.03;;;;;;;5.57;82.44;95635.31;5433442;26;20572;-80
2024/04/20 08:29:26;;;;;;;6.73;3.97;;;;;;;5.57;82.94;95646.44;5396708;26;20288;-79
2024/04/20 08:31:52;;;;;;;6.23;4.00;;;;;;;5.55;81.68;95640.56;5432954;26;20259;-79
2024/04/20 08:34:17;;;;;;;4.53;3.57;;;;;;;5.44;81.45;95650.03;5432458;26;20243;-79
2024/04/20 08:36:43;;;;;;;5.67;3.93;;;;;;;5.46;81.17;95643.81;5402625;26;20236;-79
2024/04/20 08:39:09;;;;;;;4.97;3.90;;;;;;;5.49;80.50;95653.91;5440177;26;20246;-79
2024/04/20 08:41:54;;;;;;;5.93;3.77;;;;;;;5.59;80.46;95654.06;5448262;26;20242;-79
2024/04/20 08:44:20;;;;;;;7.73;3.30;;;;;;;5.43;79.63;95659.50;5442079;26;20247;-79
2024/04/20 08:46:48;;;;;;;11.47;6.40;;;;;;;5.42;79.49;95664.78;5406056;26;20270;-80
2024/04/20 08:49:15;;;;;;;39.87;18.90;;;;;;;5.73;78.07;95669.28;5406236;26;20242;-80
2024/04/20 08:51:43;;;;;;;41.73;20.50;;;;;;;6.23;78.00;95668.06;5405905;26;20246;-79
2024/04/20 08:54:09;;;;;;;42.90;21.43;;;;;;;6.78;75.84;95663.75;5444024;26;20234;-80
2024/04/20 08:56:35;;;;;;;19.87;11.17;;;;;;;7.27;73.09;95669.34;5439739;26;20310;-79
2024/04/20 08:59:00;;;;;;;4.90;3.30;;;;;;;6.95;69.45;95670.16;5431531;26;20244;-79
2024/04/20 09:01:30;;;;;;;8.33;5.97;;;;;;;6.69;68.08;95673.97;5426426;26;20313;-79
2024/04/20 09:03:56;;;;;;;6.13;3.73;;;;;;;6.75;68.98;95683.81;5392225;26;20244;-80
2024/04/20 09:06:22;;;;;;;3.20;2.67;;;;;;;5.94;71.29;95693.50;5437093;26;20735;-79
2024/04/20 09:08:47;;;;;;;7.07;3.13;;;;;;;6.10;74.34;95692.34;5430314;26;20247;-79
2024/04/20 09:11:13;;;;;;;4.13;3.10;;;;;;;6.45;71.68;95693.03;5409421;26;20246;-79
2024/04/20 09:13:38;;;;;;;3.23;2.67;;;;;;;6.65;71.01;95700.97;5437140;26;20302;-80
2024/04/20 09:16:06;;;;;;;6.57;3.30;;;;;;;6.78;69.75;95704.22;5450945;26;20280;-80
2024/04/20 09:18:31;;;;;;;7.83;3.20;;;;;;;7.10;71.42;95699.09;5395211;26;20243;-79
2024/04/20 09:20:57;;;;;;;6.27;3.37;;;;;;;7.08;72.25;95701.81;5442451;26;20288;-80
2024/04/20 09:23:23;;;;;;;7.13;2.97;;;;;;;6.80;72.72;95708.34;5433916;26;20272;-80
2024/04/20 09:25:52;;;;;;;5.80;3.20;;;;;;;6.53;73.59;95713.03;5415080;26;20278;-79
2024/04/20 09:28:17;;;;;;;4.63;2.63;;;;;;;6.51;73.02;95717.50;5396416;26;20239;-79
2024/04/20 09:30:43;;;;;;;5.40;3.07;;;;;;;6.50;74.13;95715.88;5415035;26;20302;-80
2024/04/20 09:33:12;;;;;;;7.83;3.23;;;;;;;6.36;73.30;95722.13;5412080;26;20268;-80
2024/04/20 09:35:40;;;;;;;6.87;2.70;;;;;;;6.41;72.22;95719.97;5433606;26;20667;-80
2024/04/20 09:38:05;;;;;;;5.63;3.30;;;;;;;6.74;72.04;95728.66;5435621;26;20274;-80
2024/04/20 09:40:31;;;;;;;5.30;3.07;;;;;;;7.17;71.71;95720.09;5398378;26;20864;-79
2024/04/20 09:42:57;;;;;;;5.93;2.87;;;;;;;7.38;68.39;95724.34;5403088;26;20264;-79
2024/04/20 09:45:26;;;;;;;5.53;2.93;;;;;;;7.89;68.45;95728.81;5432416;26;20727;-79
2024/04/20 09:47:53;;;;;;;8.80;5.37;;;;;;;7.82;66.89;95726.84;5427347;26;20276;-78
2024/04/20 09:50:18;;;;;;;22.30;12.80;;;;;;;8.33;65.85;95723.47;5441739;26;20239;-79
2024/04/20 09:52:51;;;;;;;20.50;14.13;;;;;;;8.48;64.97;95730.78;5429652;26;20286;-79
2024/04/20 09:55:30;;;;;;;5.13;4.13;;;;;;;8.44;65.10;95718.22;5398812;26;20335;-80
2024/04/20 09:58:03;;;;;;;5.27;3.10;;;;;;;7.80;63.53;95724.38;5427373;26;20233;-79
2024/04/20 10:00:36;;;;;;;4.73;2.60;;;;;;;7.69;62.10;95728.81;5430621;26;20280;-79
2024/04/20 10:03:06;;;;;;;7.07;2.60;;;;;;;7.30;60.84;95731.91;5396045;26;20629;-79
2024/04/20 10:05:38;;;;;;;4.23;3.23;;;;;;;8.05;61.89;95733.53;5431839;26;20242;-79
2024/04/20 10:08:05;;;;;;;6.23;3.00;;;;;;;8.07;61.34;95734.22;5431791;26;20383;-79
2024/04/20 10:10:31;;;;;;;6.57;3.50;;;;;;;8.14;60.80;95734.53;5431376;26;20292;-79
2024/04/20 10:13:02;;;;;;;4.87;3.17;;;;;;;8.54;60.58;95739.78;5400504;26;20242;-79
2024/04/20 10:15:29;;;;;;;2.60;2.40;;;;;;;8.39;59.88;95734.16;5424167;26;20620;-79
2024/04/20 10:17:54;;;;;;;3.70;2.40;;;;;;;8.45;60.32;95730.22;5428760;26;20695;-81
2024/04/20 10:20:31;;;;;;;6.03;2.43;;;;;;;8.35;58.30;95737.94;5418826;26;20346;-78
2024/04/20 10:22:57;;;;;;;6.93;2.60;;;;;;;8.14;58.10;95737.13;5426651;26;20230;-79
2024/04/20 10:25:22;;;;;;;5.27;2.93;;;;;;;8.21;57.95;95744.22;5424017;26;20328;-79
2024/04/20 10:27:49;;;;;;;5.87;3.53;;;;;;;8.00;58.79;95750.38;5423042;26;20235;-77
2024/04/20 10:30:22;;;;;;;7.70;3.90;;;;;;;7.28;58.62;95753.63;5431385;26;20246;-79
2024/04/20 10:32:50;;;;;;;3.27;2.27;;;;;;;7.46;58.93;95754.75;5429875;26;20243;-77
2024/04/20 10:35:22;;;;;;;4.27;2.50;;;;;;;7.53;58.41;95752.50;5422782;26;20274;-79
2024/04/20 10:38:00;;;;;;;3.20;2.33;;;;;;;7.62;57.64;95756.91;5392583;26;20368;-78
2024/04/20 10:40:31;;;;;;;3.37;2.67;;;;;;;8.05;57.96;95756.00;5402022;26;20323;-78
2024/04/20 10:43:27;;;;;;;5.27;2.83;;;;;;;7.47;57.12;95764.13;5434627;26;20244;-78
2024/04/20 10:46:04;;;;;;;2.77;2.27;;;;;;;7.91;57.04;95762.28;5428056;26;20262;-79
2024/04/20 10:48:32;;;;;;;4.03;2.53;;;;;;;8.10;57.01;95762.41;5423161;26;20246;-77
2024/04/20 10:50:58;;;;;;;4.83;3.33;;;;;;;8.13;58.01;95761.34;5415894;26;20240;-79
2024/04/20 10:53:24;;;;;;;5.37;2.70;;;;;;;8.15;54.80;95759.44;5417331;26;20238;-79
2024/04/20 10:55:56;;;;;;;3.47;2.33;;;;;;;7.81;53.42;95758.81;5429501;26;20615;-79
2024/04/20 10:58:26;;;;;;;2.70;2.50;;;;;;;8.37;54.08;95763.66;5429771;26;20234;-79
2024/04/20 11:00:51;;;;;;;6.27;2.27;;;;;;;8.36;55.57;95757.69;5406765;26;20238;-79
2024/04/20 11:03:17;;;;;;;4.53;2.50;;;;;;;8.41;53.26;95759.91;5427170;26;20285;-78
2024/04/20 11:05:56;;;;;;;7.50;6.90;;;;;;;8.42;54.50;95758.94;5436459;26;20274;-78
2024/04/20 11:08:25;;;;;;;4.03;2.93;;;;;;;8.98;54.95;95764.44;5417861;26;20235;-78
2024/04/20 11:11:04;;;;;;;5.13;2.77;;;;;;;8.67;52.71;95765.47;5401156;26;20257;-79
2024/04/20 11:13:31;;;;;;;5.87;2.93;;;;;;;9.06;53.92;95767.19;5395049;26;20256;-79
2024/04/20 11:15:58;;;;;;;4.00;2.53;;;;;;;8.77;52.44;95772.31;5383994;26;20254;-79
2024/04/20 11:18:23;;;;;;;6.00;2.70;;;;;;;8.80;53.82;95766.84;5385006;26;20659;-79
2024/04/20 11:20:48;;;;;;;3.60;2.60;;;;;;;8.87;53.96;95772.34;5420200;26;20262;-79
2024/04/20 11:23:17;;;;;;;5.33;2.73;;;;;;;8.97;54.58;95769.78;5394577;26;20942;-78
2024/04/20 11:25:53;;;;;;;2.93;2.73;;;;;;;9.24;52.93;95767.38;5419706;26;20725;-79
2024/04/20 11:28:20;;;;;;;4.07;2.97;;;;;;;9.24;51.40;95774.31;5423142;26;20338;-79
2024/04/20 11:30:45;;;;;;;4.47;2.43;;;;;;;9.69;50.22;95772.06;5418218;26;20274;-79
2024/04/20 11:33:12;;;;;;;3.27;2.57;;;;;;;9.04;50.89;95766.53;5390332;26;20257;-77
2024/04/20 11:35:39;;;;;;;3.13;2.83;;;;;;;8.89;52.10;95761.84;5408396;26;20733;-79